createdAt,value
2017-02-24T00:00:58.757Z,0
2017-02-24T00:02:07.829Z,0
2017-02-24T00:03:17.672Z,0
2017-02-24T00:04:27.128Z,0
2017-02-24T00:05:36.956Z,0
2017-02-24T00:06:46.024Z,0
2017-02-24T00:07:55.474Z,0
2017-02-24T00:09:04.548Z,0
2017-02-24T00:10:13.988Z,0
2017-02-24T00:11:23.051Z,0
2017-02-24T00:12:33.333Z,0
2017-02-24T00:13:43.560Z,0
2017-02-24T00:14:52.613Z,0
2017-02-24T00:16:01.295Z,0
2017-02-24T00:17:10.356Z,0
2017-02-24T00:18:19.806Z,0
2017-02-24T00:19:28.861Z,0
2017-02-24T00:20:38.301Z,0
2017-02-24T00:21:47.745Z,0
2017-02-24T00:22:56.835Z,0
2017-02-24T00:24:06.289Z,0
2017-02-24T00:25:15.349Z,0
2017-02-24T00:26:24.413Z,0
2017-02-24T00:27:34.245Z,0
2017-02-24T00:28:43.310Z,0
2017-02-24T00:29:53.189Z,0
2017-02-24T00:31:02.632Z,0
2017-02-24T00:32:12.088Z,0
2017-02-24T00:33:21.139Z,0
2017-02-24T00:34:30.978Z,0
2017-02-24T00:35:40.425Z,0
2017-02-24T00:36:49.905Z,0
2017-02-24T00:37:59.370Z,0
2017-02-24T00:39:09.221Z,0
2017-02-24T00:40:19.082Z,0
2017-02-24T00:41:28.560Z,0
2017-02-24T00:42:37.618Z,0
2017-02-24T00:43:46.676Z,0
2017-02-24T00:44:55.752Z,0
2017-02-24T00:46:04.815Z,0
2017-02-24T00:47:14.299Z,0
2017-02-24T00:48:24.136Z,0
2017-02-24T00:49:33.970Z,0
2017-02-24T00:50:42.644Z,0
2017-02-24T00:51:51.333Z,0
2017-02-24T00:53:00.391Z,0
2017-02-24T00:54:09.864Z,0
2017-02-24T00:55:20.078Z,0
2017-02-24T00:56:29.536Z,0
2017-02-24T00:57:38.612Z,0
2017-02-24T00:58:48.107Z,0
2017-02-24T00:59:58.320Z,0
2017-02-24T01:01:08.176Z,0
2017-02-24T01:02:17.250Z,0
2017-02-24T01:03:27.131Z,0
2017-02-24T01:04:36.577Z,0
2017-02-24T01:05:46.399Z,0
2017-02-24T01:06:56.624Z,0
2017-02-24T01:08:05.675Z,0
2017-02-24T01:09:15.147Z,0
2017-02-24T01:10:24.586Z,0
2017-02-24T01:11:34.072Z,0
2017-02-24T01:12:43.514Z,0
2017-02-24T01:13:52.951Z,0
2017-02-24T01:15:02.410Z,0
2017-02-24T01:16:11.473Z,0
2017-02-24T01:17:20.911Z,0
2017-02-24T01:18:30.355Z,0
2017-02-24T01:19:39.442Z,0
2017-02-24T01:20:48.882Z,0
2017-02-24T01:21:58.716Z,0
2017-02-24T01:23:07.775Z,0
2017-02-24T01:24:17.603Z,0
2017-02-24T01:25:27.057Z,0
2017-02-24T01:26:36.499Z,0
2017-02-24T01:27:45.577Z,0
2017-02-24T01:28:54.661Z,0
2017-02-24T01:30:04.491Z,0
2017-02-24T01:31:13.556Z,0
2017-02-24T01:32:22.243Z,0
2017-02-24T01:33:31.692Z,0
2017-02-24T01:34:41.149Z,0
2017-02-24T01:35:50.225Z,0
2017-02-24T01:37:00.048Z,0
2017-02-24T01:38:09.128Z,0
2017-02-24T01:39:18.182Z,0
2017-02-24T01:40:27.265Z,0
2017-02-24T01:41:35.955Z,0
2017-02-24T01:42:45.805Z,0
2017-02-24T01:43:54.481Z,0
2017-02-24T01:45:03.940Z,0
2017-02-24T01:46:14.165Z,0
2017-02-24T01:47:23.627Z,0
2017-02-24T01:48:33.075Z,0
2017-02-24T01:49:41.742Z,0
2017-02-24T01:50:51.188Z,0
2017-02-24T01:52:00.236Z,0
2017-02-24T01:53:09.719Z,0
2017-02-24T01:54:19.192Z,0
2017-02-24T01:55:29.011Z,0
2017-02-24T01:56:38.826Z,0
2017-02-24T01:57:48.665Z,0
2017-02-24T01:58:58.485Z,0
2017-02-24T02:00:07.931Z,0
2017-02-24T02:01:17.781Z,0
2017-02-24T02:02:26.895Z,0
2017-02-24T02:03:36.379Z,0
2017-02-24T02:04:46.214Z,0
2017-02-24T02:05:55.674Z,0
2017-02-24T02:07:05.512Z,0
2017-02-24T02:08:15.049Z,0
2017-02-24T02:09:24.531Z,0
2017-02-24T02:10:34.390Z,0
2017-02-24T02:11:43.494Z,0
2017-02-24T02:12:53.338Z,0
2017-02-24T02:14:02.048Z,0
2017-02-24T02:15:11.917Z,0
2017-02-24T02:16:21.392Z,0
2017-02-24T02:17:30.103Z,0
2017-02-24T02:18:39.190Z,0
2017-02-24T02:19:49.047Z,0
2017-02-24T02:20:58.130Z,0
2017-02-24T02:22:07.995Z,0
2017-02-24T02:23:17.088Z,0
2017-02-24T02:24:26.953Z,0
2017-02-24T02:25:36.804Z,0
2017-02-24T02:26:45.913Z,0
2017-02-24T02:27:55.770Z,0
2017-02-24T02:29:04.484Z,0
2017-02-24T02:30:13.561Z,0
2017-02-24T02:31:22.648Z,0
2017-02-24T02:32:32.140Z,0
2017-02-24T02:33:42.405Z,0
2017-02-24T02:34:51.481Z,0
2017-02-24T02:36:01.729Z,0
2017-02-24T02:37:11.204Z,0
2017-02-24T02:38:19.921Z,0
2017-02-24T02:39:29.400Z,0
2017-02-24T02:40:39.633Z,0
2017-02-24T02:41:48.329Z,0
2017-02-24T02:42:58.613Z,0
2017-02-24T02:44:07.303Z,0
2017-02-24T02:45:16.779Z,0
2017-02-24T02:46:26.635Z,0
2017-02-24T02:47:36.878Z,0
2017-02-24T02:48:46.365Z,0
2017-02-24T02:49:55.452Z,0
2017-02-24T02:51:05.335Z,0
2017-02-24T02:52:15.187Z,0
2017-02-24T02:53:24.661Z,0
2017-02-24T02:54:34.566Z,0
2017-02-24T02:55:44.051Z,0
2017-02-24T02:56:53.535Z,0
2017-02-24T02:58:02.637Z,0
2017-02-24T02:59:12.116Z,0
2017-02-24T03:00:20.823Z,0
2017-02-24T03:01:30.693Z,0
2017-02-24T03:02:40.190Z,0
2017-02-24T03:03:48.904Z,0
2017-02-24T03:04:57.994Z,0
2017-02-24T03:06:07.479Z,0
2017-02-24T03:07:16.566Z,0
2017-02-24T03:08:26.454Z,0
2017-02-24T03:09:36.318Z,0
2017-02-24T03:10:45.807Z,0
2017-02-24T03:11:55.057Z,0
2017-02-24T03:13:04.525Z,0
2017-02-24T03:14:14.386Z,0
2017-02-24T03:15:24.239Z,0
2017-02-24T03:16:34.106Z,0
2017-02-24T03:17:43.245Z,0
2017-02-24T03:18:52.326Z,0
2017-02-24T03:20:01.811Z,0
2017-02-24T03:21:11.290Z,0
2017-02-24T03:22:20.768Z,0
2017-02-24T03:23:29.846Z,0
2017-02-24T03:24:39.348Z,0
2017-02-24T03:25:48.435Z,0
2017-02-24T03:26:57.151Z,0
2017-02-24T03:28:06.657Z,0
2017-02-24T03:29:15.433Z,0
2017-02-24T03:30:24.555Z,0
2017-02-24T03:31:33.671Z,0
2017-02-24T03:32:42.759Z,0
2017-02-24T03:33:52.222Z,0
2017-02-24T03:35:02.077Z,0
2017-02-24T03:36:11.177Z,0
2017-02-24T03:37:21.044Z,0
2017-02-24T03:38:30.139Z,0
2017-02-24T03:39:39.279Z,0
2017-02-24T03:40:48.471Z,0
2017-02-24T03:41:57.957Z,0
2017-02-24T03:43:08.272Z,0
2017-02-24T03:44:17.777Z,0
2017-02-24T03:45:27.455Z,0
2017-02-24T03:46:36.649Z,0
2017-02-24T03:47:46.118Z,0
2017-02-24T03:48:56.424Z,0
2017-02-24T03:50:06.315Z,0
2017-02-24T03:51:15.788Z,0
2017-02-24T03:52:25.266Z,0
2017-02-24T03:53:34.358Z,0
2017-02-24T03:54:44.282Z,0
2017-02-24T03:55:53.753Z,0
2017-02-24T03:57:03.220Z,0
2017-02-24T03:58:12.359Z,0
2017-02-24T03:59:22.293Z,0
2017-02-24T04:00:32.143Z,0
2017-02-24T04:01:41.637Z,0
2017-02-24T04:02:51.109Z,0
2017-02-24T04:04:00.584Z,0
2017-02-24T04:05:10.444Z,0
2017-02-24T04:06:19.539Z,0
2017-02-24T04:07:29.411Z,0
2017-02-24T04:08:38.500Z,0
2017-02-24T04:09:47.971Z,0
2017-02-24T04:10:57.463Z,0
2017-02-24T04:12:06.934Z,0
2017-02-24T04:13:16.775Z,0
2017-02-24T04:14:26.244Z,0
2017-02-24T04:15:36.119Z,0
2017-02-24T04:16:45.209Z,0
2017-02-24T04:17:54.721Z,0
2017-02-24T04:19:04.200Z,0
2017-02-24T04:20:12.920Z,0
2017-02-24T04:21:22.405Z,0
2017-02-24T04:22:31.494Z,0
2017-02-24T04:23:41.351Z,0
2017-02-24T04:24:50.815Z,0
2017-02-24T04:26:00.699Z,0
2017-02-24T04:27:10.168Z,0
2017-02-24T04:28:19.627Z,0
2017-02-24T04:29:29.109Z,0
2017-02-24T04:30:38.179Z,0
2017-02-24T04:31:47.649Z,0
2017-02-24T04:32:57.128Z,0
2017-02-24T04:34:06.656Z,0
2017-02-24T04:35:15.352Z,0
2017-02-24T04:36:24.826Z,0
2017-02-24T04:37:34.290Z,0
2017-02-24T04:38:43.396Z,0
2017-02-24T04:39:52.871Z,0
2017-02-24T04:41:03.116Z,0
2017-02-24T04:42:13.018Z,0
2017-02-24T04:43:22.140Z,0
2017-02-24T04:44:31.221Z,0
2017-02-24T04:45:41.483Z,0
2017-02-24T04:46:50.569Z,0
2017-02-24T04:47:59.656Z,0
2017-02-24T04:49:08.734Z,0
2017-02-24T04:50:18.215Z,0
2017-02-24T04:51:27.716Z,0
2017-02-24T04:52:36.828Z,0
2017-02-24T04:53:45.921Z,0
2017-02-24T04:54:55.413Z,0
2017-02-24T04:56:04.895Z,0
2017-02-24T04:57:14.747Z,0
2017-02-24T04:58:24.229Z,0
2017-02-24T04:59:34.467Z,0
2017-02-24T05:00:44.065Z,0
2017-02-24T05:01:53.914Z,0
2017-02-24T05:03:03.832Z,0
2017-02-24T05:04:14.089Z,0
2017-02-24T05:05:23.181Z,0
2017-02-24T05:06:32.263Z,0
2017-02-24T05:07:42.564Z,0
2017-02-24T05:08:51.656Z,0
2017-02-24T05:10:01.118Z,0
2017-02-24T05:11:10.973Z,0
2017-02-24T05:12:20.481Z,0
2017-02-24T05:13:29.210Z,0
2017-02-24T05:14:38.304Z,0
2017-02-24T05:15:47.787Z,0
2017-02-24T05:16:57.264Z,0
2017-02-24T05:18:07.132Z,0
2017-02-24T05:19:16.603Z,0
2017-02-24T05:20:26.082Z,0
2017-02-24T05:21:34.790Z,0
2017-02-24T05:22:44.662Z,0
2017-02-24T05:23:54.143Z,0
2017-02-24T05:25:03.616Z,0
2017-02-24T05:26:13.088Z,0
2017-02-24T05:27:22.937Z,0
2017-02-24T05:28:33.179Z,0
2017-02-24T05:29:43.443Z,0
2017-02-24T05:30:52.929Z,0
2017-02-24T05:32:02.411Z,0
2017-02-24T05:33:11.485Z,0
2017-02-24T05:34:21.362Z,0
2017-02-24T05:35:30.859Z,0
2017-02-24T05:36:39.959Z,0
2017-02-24T05:37:49.075Z,0
2017-02-24T05:38:58.562Z,0
2017-02-24T05:40:07.278Z,0
2017-02-24T05:41:16.751Z,0
2017-02-24T05:42:26.613Z,0
2017-02-24T05:43:35.319Z,0
2017-02-24T05:44:44.407Z,0
2017-02-24T05:45:53.488Z,0
2017-02-24T05:47:02.213Z,0
2017-02-24T05:48:11.680Z,0
2017-02-24T05:49:20.782Z,0
2017-02-24T05:50:30.648Z,0
2017-02-24T05:51:39.741Z,0
2017-02-24T05:52:49.218Z,0
2017-02-24T05:53:58.392Z,0
2017-02-24T05:55:07.471Z,0
2017-02-24T05:56:16.937Z,0
2017-02-24T05:57:26.409Z,4
2017-02-24T05:58:36.271Z,0
2017-02-24T05:59:45.369Z,4
2017-02-24T06:00:54.449Z,4
2017-02-24T06:02:03.976Z,4
2017-02-24T06:03:12.696Z,4
2017-02-24T06:04:21.780Z,8
2017-02-24T06:05:30.868Z,8
2017-02-24T06:06:40.370Z,12
2017-02-24T06:07:50.624Z,16
2017-02-24T06:09:00.101Z,20
2017-02-24T06:10:09.581Z,24
2017-02-24T06:11:18.338Z,28
2017-02-24T06:12:27.047Z,36
2017-02-24T06:13:36.519Z,44
2017-02-24T06:14:45.997Z,52
2017-02-24T06:15:55.475Z,64
2017-02-24T06:17:06.141Z,76
2017-02-24T06:18:16.012Z,92
2017-02-24T06:19:24.718Z,108
2017-02-24T06:20:33.803Z,128
2017-02-24T06:21:44.043Z,144
2017-02-24T06:22:53.598Z,172
2017-02-24T06:24:03.472Z,200
2017-02-24T06:25:12.937Z,228
2017-02-24T06:26:23.194Z,256
2017-02-24T06:27:31.901Z,288
2017-02-24T06:28:40.625Z,324
2017-02-24T06:29:50.501Z,360
2017-02-24T06:31:00.357Z,400
2017-02-24T06:32:09.885Z,444
2017-02-24T06:33:19.755Z,488
2017-02-24T06:34:29.240Z,536
2017-02-24T06:35:37.942Z,584
2017-02-24T06:36:47.028Z,636
2017-02-24T06:37:56.507Z,688
2017-02-24T06:39:06.368Z,744
2017-02-24T06:40:16.630Z,800
2017-02-24T06:41:26.489Z,860
2017-02-24T06:42:36.356Z,924
2017-02-24T06:43:45.445Z,988
2017-02-24T06:44:55.302Z,1056
2017-02-24T06:46:05.598Z,1120
2017-02-24T06:47:15.065Z,1184
2017-02-24T06:48:24.913Z,1248
2017-02-24T06:49:35.163Z,1308
2017-02-24T06:50:45.031Z,1376
2017-02-24T06:51:54.536Z,1440
2017-02-24T06:53:04.389Z,1508
2017-02-24T06:54:13.881Z,1572
2017-02-24T06:55:23.359Z,1640
2017-02-24T06:56:32.469Z,1704
2017-02-24T06:57:42.711Z,1792
2017-02-24T06:58:51.805Z,1884
2017-02-24T07:00:01.302Z,1984
2017-02-24T07:01:11.987Z,2060
2017-02-24T07:02:20.705Z,2140
2017-02-24T07:03:30.577Z,2216
2017-02-24T07:04:40.057Z,2276
2017-02-24T07:05:49.545Z,2332
2017-02-24T07:06:59.416Z,2400
2017-02-24T07:08:10.056Z,2472
2017-02-24T07:09:19.528Z,2528
2017-02-24T07:10:28.617Z,2596
2017-02-24T07:11:38.851Z,2668
2017-02-24T07:12:47.573Z,2768
2017-02-24T07:13:57.822Z,2876
2017-02-24T07:15:06.962Z,2992
2017-02-24T07:16:16.483Z,3124
2017-02-24T07:17:25.969Z,3228
2017-02-24T07:18:36.222Z,3368
2017-02-24T07:19:45.685Z,3484
2017-02-24T07:20:55.541Z,3588
2017-02-24T07:22:04.649Z,3692
2017-02-24T07:23:14.105Z,3800
2017-02-24T07:24:23.590Z,3904
2017-02-24T07:25:33.081Z,4004
2017-02-24T07:26:42.188Z,4136
2017-02-24T07:27:51.680Z,4292
2017-02-24T07:29:01.165Z,4464
2017-02-24T07:30:11.032Z,4592
2017-02-24T07:31:20.138Z,4736
2017-02-24T07:32:28.898Z,4840
2017-02-24T07:33:38.750Z,4908
2017-02-24T07:34:48.223Z,4924
2017-02-24T07:35:57.704Z,4892
2017-02-24T07:37:06.798Z,4940
2017-02-24T07:38:15.506Z,5020
2017-02-24T07:39:24.600Z,5092
2017-02-24T07:40:33.695Z,5200
2017-02-24T07:41:43.566Z,5376
2017-02-24T07:42:52.679Z,5548
2017-02-24T07:44:02.539Z,5740
2017-02-24T07:45:11.622Z,5896
2017-02-24T07:46:21.863Z,6052
2017-02-24T07:47:31.334Z,6220
2017-02-24T07:48:40.038Z,6380
2017-02-24T07:49:48.798Z,6600
2017-02-24T07:50:57.909Z,6676
2017-02-24T07:52:06.618Z,6740
2017-02-24T07:53:16.116Z,6772
2017-02-24T07:54:25.199Z,6736
2017-02-24T07:55:35.078Z,6576
2017-02-24T07:56:44.938Z,6376
2017-02-24T07:57:54.026Z,6200
2017-02-24T07:59:03.895Z,6072
2017-02-24T08:00:13.395Z,5916
2017-02-24T08:01:23.249Z,5700
2017-02-24T08:02:33.547Z,5464
2017-02-24T08:03:43.774Z,5224
2017-02-24T08:04:53.640Z,5012
2017-02-24T08:06:03.497Z,4884
2017-02-24T08:07:13.397Z,4892
2017-02-24T08:08:22.882Z,4892
2017-02-24T08:09:32.342Z,4924
2017-02-24T08:10:42.615Z,5080
2017-02-24T08:11:52.093Z,5184
2017-02-24T08:13:00.804Z,5248
2017-02-24T08:14:10.286Z,5344
2017-02-24T08:15:19.782Z,5452
2017-02-24T08:16:29.644Z,5604
2017-02-24T08:17:38.366Z,5772
2017-02-24T08:18:47.879Z,5868
2017-02-24T08:19:57.750Z,5888
2017-02-24T08:21:07.247Z,5900
2017-02-24T08:22:17.103Z,5908
2017-02-24T08:23:26.584Z,5932
2017-02-24T08:24:35.691Z,5940
2017-02-24T08:25:44.412Z,5952
2017-02-24T08:26:53.883Z,5948
2017-02-24T08:28:02.616Z,5924
2017-02-24T08:29:11.703Z,5896
2017-02-24T08:30:21.965Z,5956
2017-02-24T08:31:30.699Z,6012
2017-02-24T08:32:39.405Z,6080
2017-02-24T08:33:48.502Z,6164
2017-02-24T08:34:58.376Z,6192
2017-02-24T08:36:08.649Z,6212
2017-02-24T08:37:17.783Z,6212
2017-02-24T08:38:27.300Z,6184
2017-02-24T08:39:36.758Z,6160
2017-02-24T08:40:47.010Z,6152
2017-02-24T08:41:56.184Z,6152
2017-02-24T08:43:05.325Z,6172
2017-02-24T08:44:14.464Z,6176
2017-02-24T08:45:23.560Z,6168
2017-02-24T08:46:33.047Z,6168
2017-02-24T08:47:42.897Z,6168
2017-02-24T08:48:51.595Z,6168
2017-02-24T08:50:00.677Z,6176
2017-02-24T08:51:10.554Z,6176
2017-02-24T08:52:19.659Z,6196
2017-02-24T08:53:28.780Z,6204
2017-02-24T08:54:38.277Z,6232
2017-02-24T08:55:48.554Z,6272
2017-02-24T08:56:58.031Z,6360
2017-02-24T08:58:07.529Z,6484
2017-02-24T08:59:16.236Z,6596
2017-02-24T09:00:25.691Z,6696
2017-02-24T09:01:35.192Z,6796
2017-02-24T09:02:44.679Z,6888
2017-02-24T09:03:54.192Z,7016
2017-02-24T09:05:03.719Z,7144
2017-02-24T09:06:12.852Z,7288
2017-02-24T09:07:22.723Z,7444
2017-02-24T09:08:31.439Z,7652
2017-02-24T09:09:40.946Z,7872
2017-02-24T09:10:51.663Z,8188
2017-02-24T09:12:01.592Z,8536
2017-02-24T09:13:10.794Z,8888
2017-02-24T09:14:20.297Z,9624
2017-02-24T09:15:29.390Z,10320
2017-02-24T09:16:38.926Z,10952
2017-02-24T09:17:47.645Z,11016
2017-02-24T09:18:57.126Z,11716
2017-02-24T09:20:06.603Z,13392
2017-02-24T09:21:16.109Z,14372
2017-02-24T09:22:25.620Z,13288
2017-02-24T09:23:34.705Z,12640
2017-02-24T09:24:44.176Z,12688
2017-02-24T09:25:53.669Z,12612
2017-02-24T09:27:02.785Z,11288
2017-02-24T09:28:12.708Z,11096
2017-02-24T09:29:22.176Z,11184
2017-02-24T09:30:31.665Z,11872
2017-02-24T09:31:41.142Z,13052
2017-02-24T09:32:50.244Z,13444
2017-02-24T09:34:00.151Z,7784
2017-02-24T09:35:10.042Z,7356
2017-02-24T09:36:19.516Z,12576
2017-02-24T09:37:28.992Z,14140
2017-02-24T09:38:38.885Z,14516
2017-02-24T09:39:49.146Z,14124
2017-02-24T09:40:58.268Z,13816
2017-02-24T09:42:08.127Z,7548
2017-02-24T09:43:18.362Z,11848
2017-02-24T09:44:28.225Z,10884
2017-02-24T09:45:38.538Z,10884
2017-02-24T09:46:48.798Z,11580
2017-02-24T09:47:58.273Z,11348
2017-02-24T09:49:08.537Z,10412
2017-02-24T09:50:17.666Z,11056
2017-02-24T09:51:27.170Z,14272
2017-02-24T09:52:37.432Z,9772
2017-02-24T09:53:46.911Z,9976
2017-02-24T09:54:57.183Z,10924
2017-02-24T09:56:06.668Z,14396
2017-02-24T09:57:15.373Z,14356
2017-02-24T09:58:25.246Z,10784
2017-02-24T09:59:35.125Z,13324
2017-02-24T10:00:45.154Z,11660
2017-02-24T10:01:54.641Z,12876
2017-02-24T10:03:03.752Z,13292
2017-02-24T10:04:13.218Z,13528
2017-02-24T10:05:22.340Z,13436
2017-02-24T10:06:31.832Z,11780
2017-02-24T10:07:41.726Z,16020
2017-02-24T10:08:51.239Z,17696
2017-02-24T10:10:01.086Z,17952
2017-02-24T10:11:11.366Z,10420
2017-02-24T10:12:20.847Z,10524
2017-02-24T10:13:29.925Z,11728
2017-02-24T10:14:38.666Z,13264
2017-02-24T10:15:48.554Z,23936
2017-02-24T10:16:58.426Z,20512
2017-02-24T10:18:07.148Z,24640
2017-02-24T10:19:17.035Z,21664
2017-02-24T10:20:26.524Z,20288
2017-02-24T10:21:36.013Z,12820
2017-02-24T10:22:45.516Z,15904
2017-02-24T10:23:55.007Z,25536
2017-02-24T10:25:04.907Z,34080
2017-02-24T10:26:14.379Z,30912
2017-02-24T10:27:23.854Z,21696
2017-02-24T10:28:33.723Z,20000
2017-02-24T10:29:43.206Z,17696
2017-02-24T10:30:53.453Z,18656
2017-02-24T10:32:02.552Z,21120
2017-02-24T10:33:12.037Z,24416
2017-02-24T10:34:21.533Z,24320
2017-02-24T10:35:30.676Z,20672
2017-02-24T10:36:39.775Z,14780
2017-02-24T10:37:48.934Z,15376
2017-02-24T10:38:58.428Z,8700
2017-02-24T10:40:08.666Z,9064
2017-02-24T10:41:17.788Z,10052
2017-02-24T10:42:27.657Z,9804
2017-02-24T10:43:36.729Z,8732
2017-02-24T10:44:46.208Z,8220
2017-02-24T10:45:55.298Z,8416
2017-02-24T10:47:04.416Z,8864
2017-02-24T10:48:13.930Z,8992
2017-02-24T10:49:22.652Z,9188
2017-02-24T10:50:31.374Z,8500
2017-02-24T10:51:41.241Z,8004
2017-02-24T10:52:50.729Z,7944
2017-02-24T10:54:00.206Z,8156
2017-02-24T10:55:09.701Z,8620
2017-02-24T10:56:19.172Z,10088
2017-02-24T10:57:28.663Z,8988
2017-02-24T10:58:37.773Z,9268
2017-02-24T10:59:47.247Z,10452
2017-02-24T11:00:56.400Z,11956
2017-02-24T11:02:06.252Z,13544
2017-02-24T11:03:15.733Z,22624
2017-02-24T11:04:24.846Z,23616
2017-02-24T11:05:33.964Z,25344
2017-02-24T11:06:43.864Z,27680
2017-02-24T11:07:52.970Z,29216
2017-02-24T11:09:02.440Z,29568
2017-02-24T11:10:11.979Z,29568
2017-02-24T11:11:20.706Z,30528
2017-02-24T11:12:31.012Z,30336
2017-02-24T11:13:40.517Z,30336
2017-02-24T11:14:49.634Z,30528
2017-02-24T11:15:59.119Z,30880
2017-02-24T11:17:08.604Z,29664
2017-02-24T11:18:19.253Z,33984
2017-02-24T11:19:29.132Z,34528
2017-02-24T11:20:38.631Z,35136
2017-02-24T11:21:48.512Z,35776
2017-02-24T11:22:58.028Z,25888
2017-02-24T11:24:07.876Z,20768
2017-02-24T11:25:17.757Z,17728
2017-02-24T11:26:26.484Z,31744
2017-02-24T11:27:35.969Z,28064
2017-02-24T11:28:44.669Z,29760
2017-02-24T11:29:54.978Z,17304
2017-02-24T11:31:04.060Z,16424
2017-02-24T11:32:13.539Z,16216
2017-02-24T11:33:24.185Z,14856
2017-02-24T11:34:33.660Z,14092
2017-02-24T11:35:43.209Z,13224
2017-02-24T11:36:53.063Z,12604
2017-02-24T11:38:02.536Z,11112
2017-02-24T11:39:12.020Z,10208
2017-02-24T11:40:21.125Z,10280
2017-02-24T11:41:30.202Z,10712
2017-02-24T11:42:39.296Z,10348
2017-02-24T11:43:48.787Z,10332
2017-02-24T11:44:58.263Z,10184
2017-02-24T11:46:07.364Z,10304
2017-02-24T11:47:17.662Z,10812
2017-02-24T11:48:27.528Z,11520
2017-02-24T11:49:37.411Z,12184
2017-02-24T11:50:46.967Z,12916
2017-02-24T11:51:57.633Z,14120
2017-02-24T11:53:07.112Z,15872
2017-02-24T11:54:16.235Z,18304
2017-02-24T11:55:25.343Z,21056
2017-02-24T11:56:34.831Z,23392
2017-02-24T11:57:44.314Z,24576
2017-02-24T11:58:53.417Z,24256
2017-02-24T12:00:02.502Z,23072
2017-02-24T12:01:11.979Z,22016
2017-02-24T12:02:21.845Z,20800
2017-02-24T12:03:31.322Z,20320
2017-02-24T12:04:40.438Z,20448
2017-02-24T12:05:50.694Z,20832
2017-02-24T12:07:00.189Z,21056
2017-02-24T12:08:09.290Z,21248
2017-02-24T12:09:19.147Z,21440
2017-02-24T12:10:28.284Z,21600
2017-02-24T12:11:37.781Z,21568
2017-02-24T12:12:46.874Z,21952
2017-02-24T12:13:56.716Z,23264
2017-02-24T12:15:06.221Z,24224
2017-02-24T12:16:15.745Z,23520
2017-02-24T12:17:25.228Z,21408
2017-02-24T12:18:35.119Z,19328
2017-02-24T12:19:44.608Z,17216
2017-02-24T12:20:54.106Z,14696
2017-02-24T12:22:03.198Z,12372
2017-02-24T12:23:12.679Z,11512
2017-02-24T12:24:21.789Z,11576
2017-02-24T12:25:30.503Z,11040
2017-02-24T12:26:39.974Z,10796
2017-02-24T12:27:49.882Z,10460
2017-02-24T12:28:58.968Z,9888
2017-02-24T12:30:07.739Z,9280
2017-02-24T12:31:17.224Z,8584
2017-02-24T12:32:26.312Z,7932
2017-02-24T12:33:35.051Z,7840
2017-02-24T12:34:45.310Z,8192
2017-02-24T12:35:54.391Z,8712
2017-02-24T12:37:04.251Z,9080
2017-02-24T12:38:13.779Z,9364
2017-02-24T12:39:23.280Z,9696
2017-02-24T12:40:32.792Z,9660
2017-02-24T12:41:42.651Z,9244
2017-02-24T12:42:51.738Z,9316
2017-02-24T12:44:00.843Z,10304
2017-02-24T12:45:10.374Z,11852
2017-02-24T12:46:20.666Z,11296
2017-02-24T12:47:30.144Z,9592
2017-02-24T12:48:39.243Z,8648
2017-02-24T12:49:49.132Z,8360
2017-02-24T12:50:59.371Z,8104
2017-02-24T12:52:08.461Z,7920
2017-02-24T12:53:17.924Z,8060
2017-02-24T12:54:27.789Z,8580
2017-02-24T12:55:37.260Z,8908
2017-02-24T12:56:46.364Z,9460
2017-02-24T12:57:55.868Z,10172
2017-02-24T12:59:04.970Z,9804
2017-02-24T13:00:14.439Z,9544
2017-02-24T13:01:24.294Z,9360
2017-02-24T13:02:33.039Z,9432
2017-02-24T13:03:43.287Z,9596
2017-02-24T13:04:52.441Z,9620
2017-02-24T13:06:01.951Z,9592
2017-02-24T13:07:11.432Z,9544
2017-02-24T13:08:20.149Z,9692
2017-02-24T13:09:28.850Z,10164
2017-02-24T13:10:37.944Z,10364
2017-02-24T13:11:47.430Z,10208
2017-02-24T13:12:57.288Z,9832
2017-02-24T13:14:06.052Z,9076
2017-02-24T13:15:15.527Z,8984
2017-02-24T13:16:25.417Z,9312
2017-02-24T13:17:34.968Z,9408
2017-02-24T13:18:44.459Z,9228
2017-02-24T13:19:54.493Z,9128
2017-02-24T13:21:03.620Z,9392
2017-02-24T13:22:12.344Z,9748
2017-02-24T13:23:22.231Z,9892
2017-02-24T13:24:31.716Z,10220
2017-02-24T13:25:41.278Z,10712
2017-02-24T13:26:50.752Z,11572
2017-02-24T13:28:00.632Z,12780
2017-02-24T13:29:10.492Z,13268
2017-02-24T13:30:19.595Z,13596
2017-02-24T13:31:28.310Z,13380
2017-02-24T13:32:37.810Z,12376
2017-02-24T13:33:47.317Z,11372
2017-02-24T13:34:56.803Z,10524
2017-02-24T13:36:06.696Z,10724
2017-02-24T13:37:16.942Z,11000
2017-02-24T13:38:26.036Z,11216
2017-02-24T13:39:35.146Z,11404
2017-02-24T13:40:44.635Z,11468
2017-02-24T13:41:54.102Z,11700
2017-02-24T13:43:03.263Z,11576
2017-02-24T13:44:12.771Z,11236
2017-02-24T13:45:22.264Z,11056
2017-02-24T13:46:30.958Z,10976
2017-02-24T13:47:40.045Z,11512
2017-02-24T13:48:48.757Z,12160
2017-02-24T13:49:59.010Z,13048
2017-02-24T13:51:09.249Z,14068
2017-02-24T13:52:18.343Z,15132
2017-02-24T13:53:28.213Z,16244
2017-02-24T13:54:38.086Z,16888
2017-02-24T13:55:47.585Z,16800
2017-02-24T13:56:57.546Z,16160
2017-02-24T13:58:06.634Z,14816
2017-02-24T13:59:15.352Z,12744
2017-02-24T14:00:25.289Z,10748
2017-02-24T14:01:34.793Z,9168
2017-02-24T14:02:44.468Z,8592
2017-02-24T14:03:53.788Z,8764
2017-02-24T14:05:03.344Z,8564
2017-02-24T14:06:12.679Z,8324
2017-02-24T14:07:22.155Z,8108
2017-02-24T14:08:31.665Z,7984
2017-02-24T14:09:41.149Z,7924
2017-02-24T14:10:51.017Z,7928
2017-02-24T14:12:00.902Z,7928
2017-02-24T14:13:09.641Z,7908
2017-02-24T14:14:18.356Z,7900
2017-02-24T14:15:27.454Z,7928
2017-02-24T14:16:36.545Z,7948
2017-02-24T14:17:46.029Z,7908
2017-02-24T14:18:55.149Z,7900
2017-02-24T14:20:05.012Z,7780
2017-02-24T14:21:15.657Z,7528
2017-02-24T14:22:25.520Z,7308
2017-02-24T14:23:34.666Z,7448
2017-02-24T14:24:44.534Z,8040
2017-02-24T14:25:54.049Z,8204
2017-02-24T14:27:03.142Z,9024
2017-02-24T14:28:12.614Z,9844
2017-02-24T14:29:22.104Z,10208
2017-02-24T14:30:31.198Z,11300
2017-02-24T14:31:40.269Z,12732
2017-02-24T14:32:50.148Z,13668
2017-02-24T14:33:59.247Z,13684
2017-02-24T14:35:09.491Z,13572
2017-02-24T14:36:18.995Z,13020
2017-02-24T14:37:28.102Z,12224
2017-02-24T14:38:37.577Z,10920
2017-02-24T14:39:46.705Z,10348
2017-02-24T14:40:55.817Z,10132
2017-02-24T14:42:05.365Z,9976
2017-02-24T14:43:14.479Z,10328
2017-02-24T14:44:23.586Z,10240
2017-02-24T14:45:33.081Z,9340
2017-02-24T14:46:42.564Z,8324
2017-02-24T14:47:52.452Z,7620
2017-02-24T14:49:01.916Z,6640
2017-02-24T14:50:11.417Z,5820
2017-02-24T14:51:21.666Z,5556
2017-02-24T14:52:30.799Z,5368
2017-02-24T14:53:39.900Z,5140
2017-02-24T14:54:49.014Z,5084
2017-02-24T14:55:57.725Z,4988
2017-02-24T14:57:07.241Z,4832
2017-02-24T14:58:16.345Z,4764
2017-02-24T14:59:25.123Z,4860
2017-02-24T15:00:35.372Z,5020
2017-02-24T15:01:45.247Z,5232
2017-02-24T15:02:54.347Z,5592
2017-02-24T15:04:03.829Z,6108
2017-02-24T15:05:13.717Z,6316
2017-02-24T15:06:23.613Z,5836
2017-02-24T15:07:33.085Z,5228
2017-02-24T15:08:42.931Z,4884
2017-02-24T15:09:52.417Z,4796
2017-02-24T15:11:01.884Z,4856
2017-02-24T15:12:10.987Z,5060
2017-02-24T15:13:20.468Z,5424
2017-02-24T15:14:29.558Z,5700
2017-02-24T15:15:39.411Z,6056
2017-02-24T15:16:48.113Z,6868
2017-02-24T15:17:57.995Z,8976
2017-02-24T15:19:07.476Z,10644
2017-02-24T15:20:17.364Z,8368
2017-02-24T15:21:26.516Z,9384
2017-02-24T15:22:35.237Z,9200
2017-02-24T15:23:44.321Z,8528
2017-02-24T15:24:54.202Z,7828
2017-02-24T15:26:02.917Z,7392
2017-02-24T15:27:12.409Z,7096
2017-02-24T15:28:21.520Z,6700
2017-02-24T15:29:30.236Z,6380
2017-02-24T15:30:40.087Z,6000
2017-02-24T15:31:48.799Z,5580
2017-02-24T15:32:58.662Z,5180
2017-02-24T15:34:08.155Z,4856
2017-02-24T15:35:17.251Z,4588
2017-02-24T15:36:25.966Z,4368
2017-02-24T15:37:35.433Z,4364
2017-02-24T15:38:44.214Z,4324
2017-02-24T15:39:53.684Z,4468
2017-02-24T15:41:02.797Z,4716
2017-02-24T15:42:12.281Z,4920
2017-02-24T15:43:21.767Z,5028
2017-02-24T15:44:31.286Z,4988
2017-02-24T15:45:40.386Z,5052
2017-02-24T15:46:50.256Z,4884
2017-02-24T15:47:59.745Z,4784
2017-02-24T15:49:09.225Z,4784
2017-02-24T15:50:18.700Z,4676
2017-02-24T15:51:28.219Z,4632
2017-02-24T15:52:38.455Z,4572
2017-02-24T15:53:47.947Z,4556
2017-02-24T15:54:57.032Z,4476